Terminal Aerodrome Forecast
Issued by NWS Albany, NY

Home | Current Version | Previous Version | Text Only | Print | Product List | Glossary On
Versions: 1 2 3 4 5 6 7 8 9 10 11 12 13 14 15 16 17 18 19
000
FTUS41 KALY 301745 CCA
TAFGFL
TAF COR
KGFL 301745Z 3018/3118 VRB03KT P6SM BKN080
     FM310800 VRB03KT 2SM BR SCT060
     FM311200 22005KT P6SM SCT060=

USA.gov is the U.S. government's official web portal to all federal, state and local government web resources and services.